Time;durP1;ratioP1;P1;durP2;ratioP2;P2;SDS_P1;SDS_P2;PMS_P1;PMS_P2;Temp;Humidity;BMP_temperature;BMP_pressure;BME280_temperature;BME280_humidity;BME280_pressure;Samples;Min_cycle;Max_cycle;Signal;HPM_P1;HPM_P2
2023/07/30 00:01:02;;;;;;;11.95;3.22;;;;;;;;;;5038744;28;20503;-81
2023/07/30 00:03:29;;;;;;;5.40;3.33;;;;;;;;;;5058951;28;20049;-81
2023/07/30 00:05:55;;;;;;;7.07;3.35;;;;;;;;;;5037208;28;20832;-80
2023/07/30 00:08:22;;;;;;;7.15;2.90;;;;;;;;;;5053711;28;20055;-80
2023/07/30 00:10:49;;;;;;;9.15;2.97;;;;;;;;;;5051841;28;20203;-80
2023/07/30 00:13:16;;;;;;;8.82;2.80;;;;;;;;;;5056413;28;20387;-80
2023/07/30 00:15:42;;;;;;;8.10;3.00;;;;;;;;;;5054663;28;20067;-81
2023/07/30 00:18:11;;;;;;;5.32;2.70;;;;;;;;;;5027195;28;20033;-79
2023/07/30 00:20:38;;;;;;;7.43;3.00;;;;;;;;;;5052285;28;20041;-81
2023/07/30 00:23:05;;;;;;;7.40;2.70;;;;;;;;;;5053270;28;20052;-80
2023/07/30 00:25:35;;;;;;;8.52;2.83;;;;;;;;;;5032612;28;20061;-80
2023/07/30 00:28:01;;;;;;;11.80;2.50;;;;;;;;;;5052583;28;20045;-81
2023/07/30 00:30:28;;;;;;;7.78;2.45;;;;;;;;;;5053527;28;20049;-81
2023/07/30 00:32:54;;;;;;;12.05;3.10;;;;;;;;;;5051314;28;20458;-81
2023/07/30 00:35:24;;;;;;;8.50;2.47;;;;;;;;;;5035403;28;20109;-81
2023/07/30 00:37:50;;;;;;;8.30;2.40;;;;;;;;;;5035916;28;20052;-80
2023/07/30 00:40:17;;;;;;;5.53;2.33;;;;;;;;;;5052690;28;20045;-79
2023/07/30 00:42:47;;;;;;;5.80;3.10;;;;;;;;;;5036153;28;20577;-79
2023/07/30 00:45:14;;;;;;;5.40;3.20;;;;;;;;;;5031655;28;20120;-80
2023/07/30 00:47:41;;;;;;;6.55;3.22;;;;;;;;;;5038452;28;20041;-81
2023/07/30 00:50:12;;;;;;;8.40;3.20;;;;;;;;;;5036919;28;20044;-78
2023/07/30 00:52:39;;;;;;;6.30;2.40;;;;;;;;;;5033198;28;20068;-79
2023/07/30 00:55:06;;;;;;;4.53;2.40;;;;;;;;;;5019413;28;20053;-80
2023/07/30 00:57:34;;;;;;;3.88;2.30;;;;;;;;;;5033267;28;20105;-79
2023/07/30 01:00:04;;;;;;;3.85;2.22;;;;;;;;;;5042446;28;20037;-80
2023/07/30 01:02:34;;;;;;;3.13;2.00;;;;;;;;;;5015949;28;20033;-81
2023/07/30 01:05:03;;;;;;;3.90;2.03;;;;;;;;;;5024110;28;20313;-82
2023/07/30 01:07:31;;;;;;;2.63;1.80;;;;;;;;;;5004481;28;20224;-81
2023/07/30 01:09:58;;;;;;;4.97;1.80;;;;;;;;;;5033373;28;20045;-80
2023/07/30 01:12:25;;;;;;;3.75;2.15;;;;;;;;;;5030868;28;20108;-81
2023/07/30 01:14:52;;;;;;;4.50;1.70;;;;;;;;;;5049809;28;20039;-79
2023/07/30 01:17:19;;;;;;;5.03;1.80;;;;;;;;;;5047958;28;20106;-82
2023/07/30 01:19:45;;;;;;;2.90;2.03;;;;;;;;;;5031026;28;20025;-82
2023/07/30 01:22:16;;;;;;;4.53;2.15;;;;;;;;;;5031037;28;20530;-80
2023/07/30 01:24:42;;;;;;;3.70;2.10;;;;;;;;;;5021928;28;20804;-81
2023/07/30 01:27:13;;;;;;;4.05;2.20;;;;;;;;;;5055106;28;20048;-82
2023/07/30 01:29:51;;;;;;;4.38;2.15;;;;;;;;;;5059433;28;20033;-81
2023/07/30 01:32:19;;;;;;;8.55;1.95;;;;;;;;;;5044804;28;20043;-80
2023/07/30 01:34:49;;;;;;;6.20;2.25;;;;;;;;;;5039788;28;20357;-80
2023/07/30 01:37:27;;;;;;;2.60;1.98;;;;;;;;;;5038495;28;20037;-78
2023/07/30 01:39:57;;;;;;;5.47;2.13;;;;;;;;;;5053479;28;21263;-78
2023/07/30 01:42:28;;;;;;;3.45;2.08;;;;;;;;;;5036649;28;20099;-83
2023/07/30 01:44:54;;;;;;;5.50;2.25;;;;;;;;;;5045554;28;20041;-81
2023/07/30 01:47:24;;;;;;;3.92;1.92;;;;;;;;;;5035838;28;20542;-79
2023/07/30 01:49:57;;;;;;;3.40;2.15;;;;;;;;;;5018635;28;20124;-81
2023/07/30 01:52:27;;;;;;;5.38;2.15;;;;;;;;;;5030160;28;20102;-79
2023/07/30 01:54:58;;;;;;;8.23;2.40;;;;;;;;;;5022139;28;20033;-80
2023/07/30 01:57:25;;;;;;;2.95;1.90;;;;;;;;;;5026698;28;20391;-80
2023/07/30 01:59:52;;;;;;;4.47;1.95;;;;;;;;;;5039189;28;20033;-79
2023/07/30 02:02:18;;;;;;;4.10;2.47;;;;;;;;;;5027930;28;20056;-78
2023/07/30 02:04:46;;;;;;;3.47;2.40;;;;;;;;;;5023725;28;20091;-78
2023/07/30 02:07:12;;;;;;;4.25;2.15;;;;;;;;;;5028130;28;20045;-79
2023/07/30 02:09:39;;;;;;;4.88;2.00;;;;;;;;;;5054784;28;20180;-79
2023/07/30 02:12:06;;;;;;;3.42;2.22;;;;;;;;;;5023260;28;20038;-81
2023/07/30 02:14:33;;;;;;;9.30;2.40;;;;;;;;;;5055261;28;20045;-80
2023/07/30 02:17:02;;;;;;;6.63;2.10;;;;;;;;;;5035947;28;20065;-80
2023/07/30 02:19:28;;;;;;;7.53;2.17;;;;;;;;;;5039664;28;20525;-80
2023/07/30 02:21:56;;;;;;;3.60;2.10;;;;;;;;;;5057798;28;20056;-80
2023/07/30 02:24:22;;;;;;;5.25;2.45;;;;;;;;;;5038428;28;20056;-79
2023/07/30 02:26:49;;;;;;;5.20;2.15;;;;;;;;;;5038745;28;20105;-81
2023/07/30 02:29:16;;;;;;;5.47;2.25;;;;;;;;;;5058269;28;20063;-80
2023/07/30 02:31:43;;;;;;;6.70;2.45;;;;;;;;;;5062027;28;20110;-81
2023/07/30 02:34:09;;;;;;;6.40;2.55;;;;;;;;;;5037876;28;20047;-80
2023/07/30 02:36:36;;;;;;;7.63;2.45;;;;;;;;;;5037016;28;20064;-79
2023/07/30 02:39:03;;;;;;;5.70;2.40;;;;;;;;;;5034575;28;22200;-81
2023/07/30 02:41:32;;;;;;;5.80;2.15;;;;;;;;;;5012786;28;20048;-80
2023/07/30 02:43:59;;;;;;;4.20;2.08;;;;;;;;;;5050775;28;20398;-80
2023/07/30 02:46:25;;;;;;;4.30;2.10;;;;;;;;;;5014998;28;20033;-80
2023/07/30 02:48:52;;;;;;;6.25;2.45;;;;;;;;;;5017939;28;20087;-80
2023/07/30 02:51:18;;;;;;;6.20;2.78;;;;;;;;;;5034187;28;20040;-80
2023/07/30 02:53:45;;;;;;;5.20;2.70;;;;;;;;;;5052722;28;20045;-79
2023/07/30 02:56:12;;;;;;;6.65;2.90;;;;;;;;;;5046193;28;20059;-80
2023/07/30 02:58:41;;;;;;;5.45;3.22;;;;;;;;;;5051780;28;20548;-79
2023/07/30 03:01:11;;;;;;;7.43;3.20;;;;;;;;;;5034499;28;20053;-79
2023/07/30 03:03:40;;;;;;;6.97;2.95;;;;;;;;;;5033962;28;20072;-79
2023/07/30 03:06:07;;;;;;;5.25;3.30;;;;;;;;;;5049801;28;20053;-80
2023/07/30 03:08:35;;;;;;;7.32;3.10;;;;;;;;;;5035750;28;20055;-80
2023/07/30 03:11:05;;;;;;;9.75;3.17;;;;;;;;;;5030721;28;20592;-80
2023/07/30 03:13:32;;;;;;;7.15;3.13;;;;;;;;;;5051527;28;20065;-81
2023/07/30 03:15:59;;;;;;;5.95;2.97;;;;;;;;;;5052514;28;20053;-79
2023/07/30 03:18:25;;;;;;;10.05;3.10;;;;;;;;;;5034246;28;20033;-79
2023/07/30 03:20:57;;;;;;;7.25;3.28;;;;;;;;;;5053569;28;20079;-81
2023/07/30 03:23:24;;;;;;;10.98;3.42;;;;;;;;;;5052657;28;20065;-80
2023/07/30 03:25:50;;;;;;;5.72;3.22;;;;;;;;;;5050590;28;20107;-80
2023/07/30 03:28:17;;;;;;;5.68;3.38;;;;;;;;;;5053837;28;20228;-80
2023/07/30 03:30:44;;;;;;;13.57;3.88;;;;;;;;;;5031772;28;20045;-80
2023/07/30 03:33:10;;;;;;;6.32;3.70;;;;;;;;;;5021854;28;20041;-80
2023/07/30 03:35:37;;;;;;;8.30;3.45;;;;;;;;;;5019682;28;20053;-81
2023/07/30 03:38:06;;;;;;;12.65;3.53;;;;;;;;;;5047913;28;20066;-81
2023/07/30 03:40:32;;;;;;;10.23;3.30;;;;;;;;;;5017933;28;20067;-81
2023/07/30 03:42:59;;;;;;;6.22;3.35;;;;;;;;;;5049640;28;20041;-82
2023/07/30 03:45:26;;;;;;;7.85;3.25;;;;;;;;;;5035028;28;20146;-79
2023/07/30 03:47:55;;;;;;;9.55;3.42;;;;;;;;;;5035079;28;20091;-82
2023/07/30 03:50:25;;;;;;;7.18;4.03;;;;;;;;;;5045718;28;20115;-79
2023/07/30 03:52:54;;;;;;;6.53;3.90;;;;;;;;;;5051307;28;20151;-80
2023/07/30 03:55:21;;;;;;;5.45;3.53;;;;;;;;;;5037574;28;20059;-81
2023/07/30 03:57:47;;;;;;;8.10;3.63;;;;;;;;;;5038854;28;20032;-78
2023/07/30 04:00:14;;;;;;;12.05;4.22;;;;;;;;;;5054729;28;20086;-80
2023/07/30 04:02:41;;;;;;;6.00;3.53;;;;;;;;;;5053221;28;20033;-80
2023/07/30 04:05:08;;;;;;;7.57;3.13;;;;;;;;;;5036273;28;20108;-78
2023/07/30 04:07:38;;;;;;;6.78;3.15;;;;;;;;;;5053182;28;20036;-80
2023/07/30 04:10:07;;;;;;;5.53;3.00;;;;;;;;;;5023284;28;20178;-77
2023/07/30 04:12:33;;;;;;;7.22;2.85;;;;;;;;;;5067392;28;20053;-79
2023/07/30 04:15:06;;;;;;;5.90;2.65;;;;;;;;;;5069624;28;20056;-79
2023/07/30 04:17:37;;;;;;;8.00;3.00;;;;;;;;;;5069253;28;20029;-80
2023/07/30 04:20:10;;;;;;;5.93;3.00;;;;;;;;;;5069159;28;20037;-79
2023/07/30 04:22:37;;;;;;;6.93;2.97;;;;;;;;;;5063096;28;20041;-81
2023/07/30 04:25:07;;;;;;;5.13;2.72;;;;;;;;;;5057373;28;20045;-81
2023/07/30 04:27:34;;;;;;;5.30;3.10;;;;;;;;;;5036215;28;20048;-81
2023/07/30 04:30:01;;;;;;;9.98;2.80;;;;;;;;;;5038321;28;20041;-81
2023/07/30 04:32:30;;;;;;;8.75;2.83;;;;;;;;;;5036314;28;20040;-80
2023/07/30 04:34:56;;;;;;;6.97;2.90;;;;;;;;;;5039030;28;20045;-80
2023/07/30 04:37:26;;;;;;;6.93;2.42;;;;;;;;;;5052507;28;20044;-81
2023/07/30 04:39:56;;;;;;;6.35;2.60;;;;;;;;;;5012640;28;20033;-81
2023/07/30 04:42:28;;;;;;;6.00;2.70;;;;;;;;;;5042548;28;20051;-80
2023/07/30 04:44:55;;;;;;;6.38;2.78;;;;;;;;;;5053048;28;20045;-81
2023/07/30 04:47:24;;;;;;;6.43;2.90;;;;;;;;;;5021875;28;20049;-79
2023/07/30 04:49:51;;;;;;;5.13;2.97;;;;;;;;;;5029047;28;20051;-79
2023/07/30 04:52:18;;;;;;;5.28;2.85;;;;;;;;;;5016648;28;20056;-79
2023/07/30 04:54:45;;;;;;;2.97;2.20;;;;;;;;;;5018268;28;20045;-79
2023/07/30 04:57:14;;;;;;;5.00;2.30;;;;;;;;;;5013699;28;20037;-79
2023/07/30 04:59:44;;;;;;;3.17;2.35;;;;;;;;;;5045991;28;20055;-79
2023/07/30 05:02:18;;;;;;;3.97;2.03;;;;;;;;;;5039256;28;20037;-80
2023/07/30 05:04:45;;;;;;;4.28;2.30;;;;;;;;;;5039039;28;20040;-78
2023/07/30 05:07:15;;;;;;;2.70;1.92;;;;;;;;;;5054377;28;20049;-80
2023/07/30 05:09:41;;;;;;;4.28;2.20;;;;;;;;;;5039603;28;20061;-80
2023/07/30 05:12:08;;;;;;;9.68;2.42;;;;;;;;;;5058479;28;20512;-80
2023/07/30 05:14:34;;;;;;;4.35;2.08;;;;;;;;;;5039547;28;20052;-83
2023/07/30 05:17:01;;;;;;;3.08;1.77;;;;;;;;;;5057909;28;20268;-82
2023/07/30 05:19:31;;;;;;;2.72;1.73;;;;;;;;;;5026125;28;20053;-81
2023/07/30 05:22:01;;;;;;;3.70;2.30;;;;;;;;;;5022987;28;20666;-83
2023/07/30 05:24:36;;;;;;;3.85;2.08;;;;;;;;;;5051858;28;20045;-83
2023/07/30 05:27:03;;;;;;;3.00;1.77;;;;;;;;;;5031254;28;20068;-80
2023/07/30 05:29:30;;;;;;;7.93;2.15;;;;;;;;;;5040782;28;20045;-80
2023/07/30 05:31:57;;;;;;;3.50;1.80;;;;;;;;;;5044367;28;20041;-80
2023/07/30 05:34:23;;;;;;;3.05;2.13;;;;;;;;;;5014361;28;20046;-81
2023/07/30 05:36:50;;;;;;;3.60;2.30;;;;;;;;;;5032416;28;20033;-81
2023/07/30 05:39:17;;;;;;;3.85;2.03;;;;;;;;;;5016965;28;20105;-80
2023/07/30 05:41:46;;;;;;;7.50;2.20;;;;;;;;;;5033846;28;20045;-82
2023/07/30 05:44:13;;;;;;;2.80;1.83;;;;;;;;;;5040293;28;20499;-81
2023/07/30 05:46:43;;;;;;;3.22;2.20;;;;;;;;;;5016932;28;20046;-82
2023/07/30 05:49:12;;;;;;;5.03;2.35;;;;;;;;;;5022356;28;20042;-82
2023/07/30 05:51:39;;;;;;;8.60;2.50;;;;;;;;;;5033449;28;20068;-81
2023/07/30 05:54:06;;;;;;;3.10;2.33;;;;;;;;;;5027766;28;20052;-82
2023/07/30 05:56:33;;;;;;;3.90;2.65;;;;;;;;;;5026168;28;20052;-81
2023/07/30 05:58:59;;;;;;;4.38;2.60;;;;;;;;;;5025153;28;20076;-82
2023/07/30 06:01:26;;;;;;;3.47;2.28;;;;;;;;;;5028241;28;20037;-82
2023/07/30 06:03:53;;;;;;;2.70;2.10;;;;;;;;;;5046017;28;20033;-80
2023/07/30 06:06:26;;;;;;;6.57;2.03;;;;;;;;;;5029652;28;20056;-80
2023/07/30 06:08:56;;;;;;;4.82;2.42;;;;;;;;;;5049148;28;20075;-80
2023/07/30 06:11:22;;;;;;;8.00;2.47;;;;;;;;;;5032759;28;20141;-77
2023/07/30 06:13:49;;;;;;;3.42;2.08;;;;;;;;;;5051091;28;20637;-77
2023/07/30 06:16:17;;;;;;;4.43;2.20;;;;;;;;;;5048471;28;20064;-81
2023/07/30 06:18:44;;;;;;;3.35;2.00;;;;;;;;;;5053155;28;20103;-82
2023/07/30 06:21:11;;;;;;;4.53;2.10;;;;;;;;;;5055480;28;20481;-80
2023/07/30 06:23:37;;;;;;;5.88;2.33;;;;;;;;;;5021949;28;20092;-82
2023/07/30 06:26:04;;;;;;;3.42;1.92;;;;;;;;;;5012462;28;20045;-80
2023/07/30 06:28:30;;;;;;;5.57;1.85;;;;;;;;;;5029690;28;20140;-80
2023/07/30 06:31:02;;;;;;;3.58;1.77;;;;;;;;;;5026646;28;20483;-82
2023/07/30 06:33:28;;;;;;;4.78;1.80;;;;;;;;;;5028206;28;20053;-80
2023/07/30 06:36:01;;;;;;;5.13;1.75;;;;;;;;;;5018600;28;20049;-80
2023/07/30 06:38:30;;;;;;;3.10;1.60;;;;;;;;;;5010460;28;20040;-80
2023/07/30 06:40:57;;;;;;;6.68;1.95;;;;;;;;;;5024589;28;20101;-80
2023/07/30 06:43:24;;;;;;;5.85;1.95;;;;;;;;;;5011184;28;20134;-82
2023/07/30 06:45:50;;;;;;;4.00;1.80;;;;;;;;;;5022260;28;20042;-81
2023/07/30 06:48:17;;;;;;;4.75;2.28;;;;;;;;;;5018745;28;20049;-81
2023/07/30 06:50:44;;;;;;;3.00;1.77;;;;;;;;;;5012432;28;20145;-81
2023/07/30 06:53:10;;;;;;;3.13;1.80;;;;;;;;;;5019174;28;20862;-80
2023/07/30 06:55:37;;;;;;;2.42;1.73;;;;;;;;;;5023907;28;20046;-77
2023/07/30 06:58:04;;;;;;;2.90;1.45;;;;;;;;;;5030953;28;20152;-78
2023/07/30 07:00:30;;;;;;;3.50;1.92;;;;;;;;;;5025222;28;20076;-82
2023/07/30 07:02:57;;;;;;;2.67;1.73;;;;;;;;;;5024570;28;20054;-81
2023/07/30 07:05:27;;;;;;;3.15;2.10;;;;;;;;;;5030276;28;21456;-80
2023/07/30 07:07:53;;;;;;;3.92;2.17;;;;;;;;;;5021956;28;20050;-81
2023/07/30 07:10:23;;;;;;;2.60;1.63;;;;;;;;;;5018767;28;20049;-82
2023/07/30 07:12:50;;;;;;;5.15;2.00;;;;;;;;;;5025820;28;20049;-80
2023/07/30 07:15:17;;;;;;;4.15;1.75;;;;;;;;;;5025277;28;20107;-82
2023/07/30 07:17:43;;;;;;;5.03;1.95;;;;;;;;;;5022950;28;20700;-81
2023/07/30 07:20:11;;;;;;;5.22;1.90;;;;;;;;;;5026914;28;20073;-80
2023/07/30 07:22:37;;;;;;;3.63;1.83;;;;;;;;;;5024596;28;20052;-79
2023/07/30 07:25:04;;;;;;;2.83;1.80;;;;;;;;;;5025884;28;20427;-80
2023/07/30 07:27:34;;;;;;;2.63;1.98;;;;;;;;;;5018549;28;20050;-83
2023/07/30 07:30:09;;;;;;;3.17;1.75;;;;;;;;;;5042086;28;20053;-80
2023/07/30 07:32:38;;;;;;;4.25;1.88;;;;;;;;;;5048094;28;20502;-80
2023/07/30 07:35:05;;;;;;;3.33;1.90;;;;;;;;;;5024354;28;20053;-77
2023/07/30 07:37:33;;;;;;;3.10;2.03;;;;;;;;;;5034277;28;20132;-81
2023/07/30 07:39:59;;;;;;;4.38;2.00;;;;;;;;;;5021869;28;20121;-79
2023/07/30 07:42:26;;;;;;;3.00;1.75;;;;;;;;;;5016462;28;20463;-79
2023/07/30 07:44:53;;;;;;;4.38;1.60;;;;;;;;;;5020129;28;20109;-81
2023/07/30 07:47:19;;;;;;;3.47;1.63;;;;;;;;;;5037528;28;20068;-79
2023/07/30 07:49:46;;;;;;;4.22;1.92;;;;;;;;;;5041338;28;20158;-80
2023/07/30 07:52:13;;;;;;;7.22;1.77;;;;;;;;;;5039971;28;20056;-81
2023/07/30 07:54:41;;;;;;;8.13;1.98;;;;;;;;;;5044800;28;20273;-79
2023/07/30 07:57:08;;;;;;;2.53;1.63;;;;;;;;;;5041526;28;20041;-81
2023/07/30 07:59:35;;;;;;;4.18;2.28;;;;;;;;;;5034579;28;20056;-79
2023/07/30 08:02:02;;;;;;;3.38;1.88;;;;;;;;;;5037939;28;20103;-81
2023/07/30 08:04:28;;;;;;;3.15;1.88;;;;;;;;;;5037106;28;21000;-81
2023/07/30 08:06:59;;;;;;;2.63;1.95;;;;;;;;;;5032927;28;20094;-79
2023/07/30 08:09:26;;;;;;;3.45;2.10;;;;;;;;;;5033767;28;20056;-79
2023/07/30 08:11:53;;;;;;;4.40;1.90;;;;;;;;;;5030037;28;20632;-81
2023/07/30 08:14:19;;;;;;;2.35;1.80;;;;;;;;;;5013876;28;20041;-80
2023/07/30 08:16:47;;;;;;;2.42;1.75;;;;;;;;;;5042120;28;20090;-79
2023/07/30 08:19:14;;;;;;;5.75;2.00;;;;;;;;;;5034728;28;20033;-82
2023/07/30 08:21:41;;;;;;;2.88;2.00;;;;;;;;;;5033976;28;20537;-81
2023/07/30 08:24:07;;;;;;;3.42;1.98;;;;;;;;;;5033284;28;20758;-80
2023/07/30 08:26:34;;;;;;;2.42;1.90;;;;;;;;;;5027429;28;20056;-80
2023/07/30 08:29:00;;;;;;;5.43;2.28;;;;;;;;;;5018128;28;20486;-79
2023/07/30 08:31:27;;;;;;;3.17;1.95;;;;;;;;;;5033487;28;20127;-80
2023/07/30 08:33:54;;;;;;;4.22;2.05;;;;;;;;;;5040112;28;20043;-80
2023/07/30 08:36:20;;;;;;;4.65;2.00;;;;;;;;;;5018826;28;20044;-81
2023/07/30 08:38:58;;;;;;;2.72;1.58;;;;;;;;;;5021030;28;20041;-80
2023/07/30 08:41:25;;;;;;;2.08;1.50;;;;;;;;;;5034864;28;20044;-79
2023/07/30 08:43:52;;;;;;;3.20;1.95;;;;;;;;;;5035057;28;20092;-81
2023/07/30 08:46:19;;;;;;;2.85;1.70;;;;;;;;;;5023583;28;20095;-79
2023/07/30 08:48:46;;;;;;;2.88;1.60;;;;;;;;;;5032541;28;20227;-82
2023/07/30 08:51:16;;;;;;;5.93;1.58;;;;;;;;;;5051102;28;20037;-80
2023/07/30 08:53:43;;;;;;;2.47;1.58;;;;;;;;;;5042877;28;20056;-82
2023/07/30 08:56:11;;;;;;;2.20;1.65;;;;;;;;;;5022781;28;20088;-79
2023/07/30 08:58:38;;;;;;;2.00;1.40;;;;;;;;;;5035142;28;20133;-80
2023/07/30 09:01:08;;;;;;;2.03;1.58;;;;;;;;;;5034291;28;20133;-80
2023/07/30 09:03:37;;;;;;;2.20;1.58;;;;;;;;;;5043258;28;20122;-78
2023/07/30 09:06:04;;;;;;;3.88;1.50;;;;;;;;;;5044831;28;20048;-79
2023/07/30 09:08:32;;;;;;;3.03;1.95;;;;;;;;;;5037832;28;20072;-78
2023/07/30 09:11:11;;;;;;;2.38;1.70;;;;;;;;;;5022651;28;20037;-79
2023/07/30 09:13:38;;;;;;;1.70;1.33;;;;;;;;;;5034620;28;20512;-80
2023/07/30 09:16:12;;;;;;;3.92;1.23;;;;;;;;;;5039912;28;20162;-79
2023/07/30 09:18:40;;;;;;;3.53;1.60;;;;;;;;;;5044580;28;20048;-79
2023/07/30 09:21:07;;;;;;;1.98;1.30;;;;;;;;;;5022732;28;20048;-78
2023/07/30 09:23:39;;;;;;;2.70;1.27;;;;;;;;;;5045344;28;20049;-79
2023/07/30 09:26:05;;;;;;;2.40;1.30;;;;;;;;;;5037949;28;20816;-79
2023/07/30 09:28:32;;;;;;;2.03;1.30;;;;;;;;;;5027020;28;20403;-81
2023/07/30 09:31:02;;;;;;;3.47;1.17;;;;;;;;;;5045632;28;20045;-78
2023/07/30 09:33:47;;;;;;;1.83;1.30;;;;;;;;;;5036855;28;20122;-79
2023/07/30 09:36:15;;;;;;;1.50;1.00;;;;;;;;;;5024668;28;20048;-77
2023/07/30 09:38:46;;;;;;;2.90;1.45;;;;;;;;;;5041848;28;20503;-79
2023/07/30 09:41:14;;;;;;;2.63;1.38;;;;;;;;;;5042292;28;20138;-82
2023/07/30 09:43:41;;;;;;;1.30;1.00;;;;;;;;;;5043197;28;20052;-78
2023/07/30 09:46:08;;;;;;;1.83;1.27;;;;;;;;;;5031918;28;20515;-78
2023/07/30 09:48:35;;;;;;;1.67;1.05;;;;;;;;;;5051865;28;20045;-79
2023/07/30 09:51:03;;;;;;;1.30;0.95;;;;;;;;;;5033894;28;20044;-80
2023/07/30 09:53:34;;;;;;;1.33;0.90;;;;;;;;;;5028563;28;20053;-79
2023/07/30 09:56:02;;;;;;;1.20;0.90;;;;;;;;;;5008364;28;20061;-78
2023/07/30 09:58:32;;;;;;;1.58;1.10;;;;;;;;;;5018839;28;20055;-79
2023/07/30 10:01:00;;;;;;;1.40;1.10;;;;;;;;;;5019192;28;20049;-79
2023/07/30 10:03:28;;;;;;;5.25;1.08;;;;;;;;;;5028674;28;20504;-79
2023/07/30 10:05:58;;;;;;;1.23;0.95;;;;;;;;;;5023553;28;20056;-78
2023/07/30 10:08:29;;;;;;;2.03;0.90;;;;;;;;;;5020273;28;20049;-80
2023/07/30 10:10:56;;;;;;;1.45;0.90;;;;;;;;;;5025885;28;20061;-78
2023/07/30 10:13:23;;;;;;;1.10;0.85;;;;;;;;;;5020017;28;20056;-80
2023/07/30 10:15:50;;;;;;;0.90;0.70;;;;;;;;;;4997794;28;20126;-77
2023/07/30 10:18:23;;;;;;;0.98;0.80;;;;;;;;;;5016796;28;20124;-78
2023/07/30 10:20:57;;;;;;;1.05;0.90;;;;;;;;;;5029454;28;20057;-79
2023/07/30 10:23:27;;;;;;;0.80;0.70;;;;;;;;;;5013211;28;20414;-78
2023/07/30 10:25:55;;;;;;;1.33;0.98;;;;;;;;;;5025416;28;20045;-78
2023/07/30 10:28:36;;;;;;;1.40;0.95;;;;;;;;;;5016627;28;20462;-79
2023/07/30 10:31:08;;;;;;;2.65;1.00;;;;;;;;;;5011754;28;20045;-79
2023/07/30 10:33:45;;;;;;;1.77;0.98;;;;;;;;;;5008970;28;20053;-78
2023/07/30 10:36:12;;;;;;;0.70;0.60;;;;;;;;;;5006028;28;20251;-78
2023/07/30 10:38:47;;;;;;;2.15;0.95;;;;;;;;;;5011606;28;20093;-79
2023/07/30 10:41:17;;;;;;;0.80;0.80;;;;;;;;;;5028210;28;20161;-78
2023/07/30 10:43:46;;;;;;;1.25;0.90;;;;;;;;;;5027200;28;20295;-77
2023/07/30 10:46:14;;;;;;;0.70;0.70;;;;;;;;;;5030777;28;20143;-79
2023/07/30 10:48:43;;;;;;;0.93;0.73;;;;;;;;;;5029718;28;20045;-78
2023/07/30 10:51:17;;;;;;;0.90;0.80;;;;;;;;;;5026387;28;20046;-79
2023/07/30 10:53:47;;;;;;;1.30;0.90;;;;;;;;;;5050412;28;20573;-79
2023/07/30 10:56:18;;;;;;;1.15;0.80;;;;;;;;;;5028614;28;20044;-79
2023/07/30 10:58:49;;;;;;;0.85;0.60;;;;;;;;;;5014394;28;20376;-78
2023/07/30 11:01:16;;;;;;;0.77;0.60;;;;;;;;;;5032153;28;20040;-78
2023/07/30 11:03:43;;;;;;;1.50;0.90;;;;;;;;;;5029839;28;20051;-78
2023/07/30 11:06:09;;;;;;;0.88;0.68;;;;;;;;;;5015426;28;20041;-79
2023/07/30 11:08:37;;;;;;;1.05;0.65;;;;;;;;;;5033686;28;20053;-79
2023/07/30 11:11:05;;;;;;;1.48;0.63;;;;;;;;;;4991130;28;20054;-80
2023/07/30 11:13:35;;;;;;;0.93;0.60;;;;;;;;;;5010227;28;20411;-78
2023/07/30 11:16:04;;;;;;;0.70;0.60;;;;;;;;;;5015280;28;20051;-80
2023/07/30 11:18:33;;;;;;;2.17;0.88;;;;;;;;;;5013544;28;20056;-77
2023/07/30 11:21:03;;;;;;;0.95;0.90;;;;;;;;;;5020631;28;20431;-78
2023/07/30 11:23:30;;;;;;;1.33;0.80;;;;;;;;;;5039785;28;20056;-79
2023/07/30 11:25:57;;;;;;;0.98;0.68;;;;;;;;;;5021921;28;20052;-77
2023/07/30 11:28:31;;;;;;;0.75;0.60;;;;;;;;;;5059251;28;20076;-79
2023/07/30 11:31:03;;;;;;;2.15;0.60;;;;;;;;;;5051313;28;20049;-79
2023/07/30 11:33:30;;;;;;;4.38;0.80;;;;;;;;;;5030427;28;20037;-78
2023/07/30 11:35:57;;;;;;;2.65;0.70;;;;;;;;;;5029749;28;20048;-78
2023/07/30 11:38:24;;;;;;;1.58;0.77;;;;;;;;;;5030691;28;20168;-79
2023/07/30 11:40:52;;;;;;;1.50;0.70;;;;;;;;;;5031007;28;20053;-79
2023/07/30 11:43:20;;;;;;;1.45;0.70;;;;;;;;;;5011573;28;20056;-78
2023/07/30 11:45:47;;;;;;;1.10;0.80;;;;;;;;;;5026337;28;20045;-79
2023/07/30 11:48:14;;;;;;;1.48;0.90;;;;;;;;;;5015244;28;20052;-78
2023/07/30 11:50:50;;;;;;;0.85;0.63;;;;;;;;;;5000560;28;20283;-79
2023/07/30 11:53:17;;;;;;;2.55;0.70;;;;;;;;;;5010642;28;20463;-79
2023/07/30 11:55:45;;;;;;;0.60;0.50;;;;;;;;;;5027082;28;20526;-79
2023/07/30 11:58:12;;;;;;;4.22;0.70;;;;;;;;;;5014973;28;20041;-79
2023/07/30 12:00:40;;;;;;;0.90;0.80;;;;;;;;;;5003653;28;20742;-80
2023/07/30 12:03:08;;;;;;;1.55;0.70;;;;;;;;;;5030909;28;20037;-78
2023/07/30 12:05:36;;;;;;;0.60;0.50;;;;;;;;;;5047057;28;20122;-80
2023/07/30 12:08:04;;;;;;;0.93;0.65;;;;;;;;;;5031460;28;20053;-78
2023/07/30 12:10:44;;;;;;;0.82;0.65;;;;;;;;;;4998725;28;20041;-78
2023/07/30 12:13:18;;;;;;;1.48;0.60;;;;;;;;;;5011355;28;20042;-78
2023/07/30 12:15:51;;;;;;;0.75;0.50;;;;;;;;;;5016628;28;20037;-80
2023/07/30 12:18:18;;;;;;;1.27;0.60;;;;;;;;;;5013935;28;20679;-78
2023/07/30 12:20:46;;;;;;;1.25;0.60;;;;;;;;;;5032546;28;20083;-80
2023/07/30 12:23:13;;;;;;;1.00;0.60;;;;;;;;;;5030632;28;20466;-79
2023/07/30 12:25:40;;;;;;;1.00;0.47;;;;;;;;;;5019521;28;20321;-79
2023/07/30 12:28:07;;;;;;;0.80;0.60;;;;;;;;;;5021580;28;20120;-79
2023/07/30 12:30:35;;;;;;;0.88;0.65;;;;;;;;;;5031212;28;20136;-80
2023/07/30 12:33:03;;;;;;;1.20;0.70;;;;;;;;;;5001058;28;20040;-79
2023/07/30 12:35:30;;;;;;;1.20;0.63;;;;;;;;;;5017310;28;20054;-78
2023/07/30 12:37:57;;;;;;;0.60;0.50;;;;;;;;;;4998964;28;20041;-78
2023/07/30 12:40:24;;;;;;;0.70;0.60;;;;;;;;;;5015850;28;20061;-79
2023/07/30 12:42:51;;;;;;;0.85;0.50;;;;;;;;;;5014682;28;20498;-80
2023/07/30 12:45:18;;;;;;;3.20;0.63;;;;;;;;;;5000670;28;20042;-79
2023/07/30 12:47:45;;;;;;;1.20;0.63;;;;;;;;;;5011967;28;20427;-78
2023/07/30 12:50:15;;;;;;;1.77;0.60;;;;;;;;;;5023132;28;20067;-78
2023/07/30 12:52:41;;;;;;;0.85;0.68;;;;;;;;;;5048880;28;20114;-80
2023/07/30 12:55:08;;;;;;;2.72;0.70;;;;;;;;;;5027600;28;20045;-79
2023/07/30 12:57:35;;;;;;;0.93;0.63;;;;;;;;;;5003181;28;20523;-78
2023/07/30 13:00:04;;;;;;;2.67;0.70;;;;;;;;;;5017934;28;20075;-78
2023/07/30 13:02:35;;;;;;;1.10;0.70;;;;;;;;;;5026603;28;20052;-78
2023/07/30 13:05:03;;;;;;;1.38;0.73;;;;;;;;;;5016359;28;20041;-78
2023/07/30 13:07:31;;;;;;;0.95;0.73;;;;;;;;;;5002292;28;20045;-81
2023/07/30 13:10:03;;;;;;;2.03;0.70;;;;;;;;;;5000468;28;20052;-79
2023/07/30 13:12:30;;;;;;;1.95;0.60;;;;;;;;;;5022493;28;20067;-79
2023/07/30 13:14:57;;;;;;;1.35;0.80;;;;;;;;;;5024707;28;20365;-80
2023/07/30 13:17:23;;;;;;;1.30;0.77;;;;;;;;;;5021993;28;20490;-79
2023/07/30 13:19:50;;;;;;;1.38;0.80;;;;;;;;;;5023856;28;20447;-78
2023/07/30 13:22:17;;;;;;;0.80;0.70;;;;;;;;;;5025148;28;20041;-78
2023/07/30 13:24:44;;;;;;;1.52;0.77;;;;;;;;;;5027964;28;20523;-81
2023/07/30 13:27:11;;;;;;;0.90;0.70;;;;;;;;;;5010172;28;20185;-77
2023/07/30 13:29:37;;;;;;;1.85;1.15;;;;;;;;;;5029707;28;20107;-78
2023/07/30 13:32:04;;;;;;;1.15;0.90;;;;;;;;;;5029606;28;20059;-79
2023/07/30 13:34:32;;;;;;;1.50;0.80;;;;;;;;;;5027405;28;20048;-78
2023/07/30 13:36:58;;;;;;;1.77;1.02;;;;;;;;;;5030132;28;20056;-79
2023/07/30 13:39:25;;;;;;;1.48;0.95;;;;;;;;;;5032801;28;20045;-78
2023/07/30 13:41:52;;;;;;;1.35;0.80;;;;;;;;;;5031662;28;20041;-79
2023/07/30 13:44:20;;;;;;;1.95;0.90;;;;;;;;;;5033214;28;20056;-79
2023/07/30 13:46:46;;;;;;;1.10;0.70;;;;;;;;;;5053313;28;20052;-78
2023/07/30 13:49:14;;;;;;;1.05;0.75;;;;;;;;;;5037491;28;20049;-79
2023/07/30 13:51:40;;;;;;;2.17;0.75;;;;;;;;;;5054364;28;20044;-81
2023/07/30 13:54:13;;;;;;;2.28;0.80;;;;;;;;;;5034295;28;20561;-79
2023/07/30 13:56:39;;;;;;;3.05;0.80;;;;;;;;;;5035478;28;20045;-80
2023/07/30 13:59:09;;;;;;;1.30;0.80;;;;;;;;;;5034516;28;20052;-80
2023/07/30 14:01:36;;;;;;;3.65;0.90;;;;;;;;;;5035219;28;20426;-79
2023/07/30 14:04:03;;;;;;;0.82;0.60;;;;;;;;;;5034758;28;20396;-79
2023/07/30 14:06:30;;;;;;;2.70;0.68;;;;;;;;;;5034146;28;20144;-80
2023/07/30 14:08:59;;;;;;;2.38;0.95;;;;;;;;;;5036095;28;20052;-79
2023/07/30 14:11:26;;;;;;;4.45;0.95;;;;;;;;;;5018689;28;20046;-80
2023/07/30 14:13:53;;;;;;;5.10;0.80;;;;;;;;;;5040512;28;20502;-79
2023/07/30 14:16:20;;;;;;;2.58;0.80;;;;;;;;;;5034362;28;20052;-79
2023/07/30 14:18:47;;;;;;;2.17;0.85;;;;;;;;;;5036217;28;20045;-80
2023/07/30 14:21:16;;;;;;;1.00;0.57;;;;;;;;;;5036600;28;20048;-81
2023/07/30 14:23:43;;;;;;;1.35;0.70;;;;;;;;;;5033665;28;20072;-80
2023/07/30 14:26:10;;;;;;;3.00;0.73;;;;;;;;;;5051661;28;20316;-78
2023/07/30 14:28:37;;;;;;;2.45;0.80;;;;;;;;;;5037524;28;20099;-79
2023/07/30 14:31:04;;;;;;;2.05;0.60;;;;;;;;;;5035576;28;20046;-79
2023/07/30 14:33:31;;;;;;;3.22;0.60;;;;;;;;;;5037432;28;20045;-78
2023/07/30 14:35:58;;;;;;;1.95;0.63;;;;;;;;;;5036304;28;20068;-79
2023/07/30 14:38:24;;;;;;;2.67;0.80;;;;;;;;;;5021622;28;20045;-79
2023/07/30 14:40:51;;;;;;;1.77;0.90;;;;;;;;;;5034980;28;20060;-77
2023/07/30 14:43:18;;;;;;;2.40;0.98;;;;;;;;;;5035933;28;20059;-78
2023/07/30 14:45:45;;;;;;;3.08;1.05;;;;;;;;;;5033975;28;20106;-79
2023/07/30 14:48:11;;;;;;;1.42;0.90;;;;;;;;;;5031430;28;20037;-78